ADDS METAR Data INFO
IDs: Format: Raw Decoded Include TAF

Data at: 0850 UTC 22 Feb 2018

PAPN 220756Z AUTO 10003KT 10SM SCT042 BKN050 OVC060 03/03 A3019 RMK AO2 SLP226 T00330028 400891006 PWINO
PAPN 220656Z AUTO 14009KT 10SM FEW034 BKN048 OVC060 04/03 A3021 RMK AO2 SLP233 P0001 T00390028 PWINO
PAPN 220556Z AUTO 14010KT 10SM OVC044 04/03 A3023 RMK AO2 SLP237 T00440028 10078 20039 58025 PWINO
PAPN 220456Z AUTO 13003KT 10SM SCT048 OVC060 05/03 A3026 RMK AO2 SLP250 T00500033 PWINO
PAPN 220356Z AUTO 10005KT 10SM OVC050 05/03 A3028 RMK AO2 SLP257 T00500033 PWINO
PAPN 212356Z AUTO 33004KT 10SM BKN042 OVC110 08/03 A3034 RMK AO2 SLP276 T00780033 10089 20011 58003 PWINO
PAPN 212256Z AUTO 20005KT 10SM OVC046 09/03 A3034 RMK AO2 SLP276 T00890028 PWINO
PAPN 212156Z AUTO 00000KT 10SM OVC044 04/02 A3035 RMK AO2 SLP279 T00440022 PWINO
PAPN 212056Z AUTO 16006KT 10SM OVC048 03/02 A3035 RMK AO2 SLP278 T00330017 55007 PWINO
PAPN 211956Z AUTO 13008KT 10SM BKN065 OVC080 03/03 A3034 RMK AO2 SLP277 T00330028 PWINO
PAPN 211856Z AUTO 13006KT 10SM BKN065 OVC090 02/01 A3034 RMK AO2 SLP277 T00170011 PWINO FZRANO
PAPN 211756Z AUTO 16006KT 10SM BKN070 OVC110 01/01 A3037 RMK AO2 SLP286 T00110006 10017 21006 56006 PWINO FZRANO
PAPN 211656Z AUTO 13006KT 10SM OVC085 01/01 A3037 RMK AO2 SLP286 T00110006 PWINO FZRANO
PAPN 211556Z AUTO 09005KT 10SM CLR 01/00 A3038 RMK AO2 SLP290 T00060000 PWINO FZRANO
PAPN 211456Z AUTO 07008KT 10SM CLR 01/00 A3039 RMK AO2 SLP292 T00060000 58009 PWINO FZRANO
PAPN 211356Z AUTO 00000KT 10SM CLR 00/00 A3041 RMK AO2 SLP300 T00000000 PWINO FZRANO
PAPN 211256Z AUTO 08004KT 10SM CLR 00/00 A3040 RMK AO2 SLP295 T00000000 PWINO FZRANO
PAPN 210756Z AUTO 10010KT 10SM FEW085 01/01 A3044 RMK AO2 SLP310 T00110011 400220006 PWINO FZRANO
PAPN 210656Z AUTO 09009KT 10SM OVC090 02/01 A3048 RMK AO2 SLP322 T00170011 PWINO FZRANO